createdAt,value
2023-03-25T00:00:14.103Z,6.25
2023-03-25T00:02:41.115Z,4.38
2023-03-25T00:05:08.132Z,5.13
2023-03-25T00:07:34.718Z,6.28
2023-03-25T00:10:01.299Z,8.38
2023-03-25T00:12:27.950Z,7.22
2023-03-25T00:14:55.130Z,5.30
2023-03-25T00:17:23.086Z,6.65
2023-03-25T00:19:50.534Z,5.43
2023-03-25T00:22:20.719Z,5.50
2023-03-25T00:24:47.416Z,5.78
2023-03-25T00:27:17.416Z,5.75
2023-03-25T00:29:44.616Z,5.90
2023-03-25T00:32:12.289Z,7.38
2023-03-25T00:34:41.878Z,5.25
2023-03-25T00:37:09.325Z,5.57
2023-03-25T00:39:36.856Z,6.53
2023-03-25T00:42:04.076Z,7.45
2023-03-25T00:44:31.134Z,6.72
2023-03-25T00:46:57.697Z,4.03
2023-03-25T00:49:25.084Z,5.18
2023-03-25T00:51:53.496Z,6.53
2023-03-25T00:54:22.286Z,5.25
2023-03-25T00:56:49.831Z,5.40
2023-03-25T00:59:16.465Z,7.43
2023-03-25T01:01:43.477Z,6.47
2023-03-25T01:04:12.606Z,5.13
2023-03-25T01:06:43.768Z,4.90
2023-03-25T01:09:13.725Z,4.78
2023-03-25T01:11:41.367Z,5.97
2023-03-25T01:14:11.267Z,5.85
2023-03-25T01:16:37.908Z,4.80
2023-03-25T01:19:04.514Z,4.82
2023-03-25T01:21:33.833Z,4.22
2023-03-25T01:24:00.442Z,4.70
2023-03-25T01:26:27.014Z,4.15
2023-03-25T01:28:54.062Z,4.85
2023-03-25T01:31:23.022Z,6.38
2023-03-25T01:33:49.794Z,4.13
2023-03-25T01:36:16.704Z,5.78
2023-03-25T01:38:43.390Z,5.65
2023-03-25T01:41:10.007Z,4.55
2023-03-25T01:43:36.533Z,4.95
2023-03-25T01:46:03.195Z,5.20
2023-03-25T01:48:40.725Z,5.38
2023-03-25T01:51:14.635Z,5.85
2023-03-25T01:53:41.169Z,4.88
2023-03-25T01:56:07.949Z,5.25
2023-03-25T01:58:35.502Z,5.15
2023-03-25T02:01:03.242Z,4.88
2023-03-25T02:03:30.817Z,4.75
2023-03-25T02:06:09.013Z,4.50
2023-03-25T02:08:38.712Z,3.95
2023-03-25T02:11:06.032Z,4.35
2023-03-25T02:13:32.648Z,4.72
2023-03-25T02:16:22.722Z,4.18
2023-03-25T02:19:02.294Z,4.30
2023-03-25T02:21:50.107Z,5.40
2023-03-25T02:24:29.948Z,6.07
2023-03-25T02:26:59.827Z,3.92
2023-03-25T02:29:49.463Z,4.93
2023-03-25T02:32:25.316Z,6.25
2023-03-25T02:35:01.070Z,4.35
2023-03-25T02:37:54.295Z,4.43
2023-03-25T02:40:29.797Z,4.97
2023-03-25T02:43:08.254Z,4.38
2023-03-25T02:45:37.655Z,4.70
2023-03-25T02:48:11.004Z,5.32
2023-03-25T02:50:45.720Z,5.75
2023-03-25T02:53:15.964Z,4.63
2023-03-25T02:55:42.476Z,4.45
2023-03-25T02:58:11.808Z,4.57
2023-03-25T03:00:38.638Z,4.15
2023-03-25T03:03:06.268Z,4.85
2023-03-25T03:05:35.479Z,3.75
2023-03-25T03:08:14.669Z,4.97
2023-03-25T03:11:02.630Z,3.45
2023-03-25T03:13:47.773Z,3.38
2023-03-25T03:16:36.914Z,5.43
2023-03-25T03:19:28.403Z,4.47
2023-03-25T03:22:01.265Z,4.70
2023-03-25T03:27:05.652Z,4.28
2023-03-25T03:29:45.341Z,3.95
2023-03-25T03:32:15.619Z,4.60
2023-03-25T03:34:46.307Z,4.47
2023-03-25T03:37:15.457Z,3.80
2023-03-25T03:39:42.265Z,3.33
2023-03-25T03:42:27.133Z,3.75
2023-03-25T03:44:56.267Z,4.13
2023-03-25T03:47:26.103Z,3.38
2023-03-25T03:49:57.963Z,3.95
2023-03-25T03:52:45.208Z,5.00
2023-03-25T03:55:14.603Z,3.95
2023-03-25T03:57:44.297Z,3.80
2023-03-25T04:00:13.552Z,3.03
2023-03-25T04:02:41.294Z,3.13
2023-03-25T04:05:08.936Z,4.80
2023-03-25T04:07:54.856Z,3.47
2023-03-25T04:10:34.587Z,4.60
2023-03-25T04:13:02.774Z,3.50
2023-03-25T04:15:29.340Z,3.35
2023-03-25T04:17:55.912Z,3.17
2023-03-25T04:20:24.713Z,1.98
2023-03-25T04:22:52.321Z,2.35
2023-03-25T04:25:21.368Z,3.38
2023-03-25T04:27:49.004Z,3.50
2023-03-25T04:30:18.018Z,3.78
2023-03-25T04:32:48.497Z,3.20
2023-03-25T04:35:16.805Z,3.33
2023-03-25T04:37:45.879Z,3.97
2023-03-25T04:40:13.787Z,3.03
2023-03-25T04:42:42.702Z,3.00
2023-03-25T04:45:14.361Z,2.47
2023-03-25T04:47:44.990Z,4.28
2023-03-25T04:50:20.375Z,3.30
2023-03-25T04:52:46.912Z,3.45
2023-03-25T04:55:17.669Z,3.30
2023-03-25T04:57:47.748Z,3.03
2023-03-25T05:00:15.306Z,3.38
2023-03-25T05:02:46.072Z,5.07
2023-03-25T05:05:20.170Z,3.17
2023-03-25T05:07:51.853Z,3.22
2023-03-25T05:10:19.603Z,2.85
2023-03-25T05:12:46.187Z,2.15
2023-03-25T05:15:12.889Z,2.65
2023-03-25T05:17:39.447Z,3.10
2023-03-25T05:20:08.295Z,3.97
2023-03-25T05:22:35.353Z,3.50
2023-03-25T05:25:02.296Z,3.80
2023-03-25T05:27:30.160Z,3.08
2023-03-25T05:30:00.074Z,2.97
2023-03-25T05:32:29.893Z,3.03
2023-03-25T05:34:56.832Z,2.25
2023-03-25T05:37:23.402Z,2.95
2023-03-25T05:39:51.661Z,2.47
2023-03-25T05:42:18.741Z,4.10
2023-03-25T05:44:51.135Z,4.13
2023-03-25T05:47:21.968Z,2.95
2023-03-25T05:49:49.602Z,2.17
2023-03-25T05:52:19.683Z,2.40
2023-03-25T05:54:46.634Z,3.22
2023-03-25T05:57:13.323Z,2.70
2023-03-25T05:59:40.565Z,3.65
2023-03-25T06:02:08.476Z,4.15
2023-03-25T06:04:37.860Z,3.05
2023-03-25T06:07:14.231Z,3.30
2023-03-25T06:09:46.075Z,3.28
2023-03-25T06:12:14.086Z,2.85
2023-03-25T06:14:42.872Z,5.05
2023-03-25T06:17:10.798Z,3.85
2023-03-25T06:19:40.562Z,3.13
2023-03-25T06:22:10.956Z,4.05
2023-03-25T06:24:38.163Z,2.83
2023-03-25T06:27:15.722Z,3.28
2023-03-25T06:29:42.365Z,2.63
2023-03-25T06:32:09.691Z,3.30
2023-03-25T06:34:36.339Z,2.80
2023-03-25T06:37:02.880Z,4.13
2023-03-25T06:39:33.676Z,3.03
2023-03-25T06:42:04.879Z,2.75
2023-03-25T06:44:51.071Z,2.92
2023-03-25T06:47:37.664Z,2.92
2023-03-25T06:50:04.489Z,2.38
2023-03-25T06:52:30.991Z,2.55
2023-03-25T06:54:57.564Z,3.65
2023-03-25T06:57:24.169Z,2.80
2023-03-25T06:59:51.188Z,3.10
2023-03-25T07:02:17.772Z,5.22
2023-03-25T07:04:44.416Z,6.32
2023-03-25T07:07:11.087Z,3.92
2023-03-25T07:09:37.736Z,5.57
2023-03-25T07:12:05.402Z,5.85
2023-03-25T07:14:33.503Z,6.13
2023-03-25T07:17:00.235Z,3.85
2023-03-25T07:19:26.810Z,5.13
2023-03-25T07:21:53.434Z,4.88
2023-03-25T07:24:20.307Z,4.25
2023-03-25T07:26:46.806Z,3.47
2023-03-25T07:29:16.801Z,4.93
2023-03-25T07:31:43.399Z,4.22
2023-03-25T07:34:09.975Z,3.88
2023-03-25T07:36:36.516Z,4.30
2023-03-25T07:39:03.318Z,3.35
2023-03-25T07:41:29.883Z,3.10
2023-03-25T07:44:28.760Z,5.35
2023-03-25T07:46:55.485Z,3.60
2023-03-25T07:49:22.131Z,1.48
2023-03-25T07:51:48.725Z,3.67
2023-03-25T07:54:15.326Z,3.08
2023-03-25T07:56:41.998Z,4.22
2023-03-25T07:59:09.384Z,3.58
2023-03-25T08:01:36.002Z,3.50
2023-03-25T08:04:02.658Z,3.53
2023-03-25T08:06:29.377Z,2.65
2023-03-25T08:08:56.027Z,3.70
2023-03-25T08:11:22.575Z,3.95
2023-03-25T08:13:49.145Z,3.08
2023-03-25T08:16:15.801Z,2.95
2023-03-25T08:18:45.128Z,2.30
2023-03-25T08:21:12.895Z,3.10
2023-03-25T08:23:39.556Z,3.60
2023-03-25T08:26:06.412Z,3.78
2023-03-25T08:28:33.437Z,2.97
2023-03-25T08:31:02.463Z,3.70
2023-03-25T08:33:39.393Z,3.63
2023-03-25T08:36:06.746Z,6.60
2023-03-25T08:38:34.958Z,6.05
2023-03-25T08:41:02.470Z,13.48
2023-03-25T08:43:29.069Z,12.93
2023-03-25T08:45:55.768Z,6.68
2023-03-25T08:48:23.054Z,6.15
2023-03-25T08:50:49.560Z,7.03
2023-03-25T08:53:16.197Z,7.32
2023-03-25T08:55:42.742Z,8.32
2023-03-25T08:58:09.361Z,8.68
2023-03-25T09:00:37.598Z,7.45
2023-03-25T09:03:04.837Z,8.60
2023-03-25T09:05:31.540Z,6.20
2023-03-25T09:07:58.121Z,6.30
2023-03-25T09:10:24.770Z,8.88
2023-03-25T09:12:51.799Z,7.03
2023-03-25T09:15:18.479Z,7.20
2023-03-25T09:17:45.133Z,6.93
2023-03-25T09:20:12.453Z,5.97
2023-03-25T09:22:39.442Z,3.67
2023-03-25T09:25:06.975Z,4.40
2023-03-25T09:27:34.106Z,37.72
2023-03-25T09:30:01.017Z,11.55
2023-03-25T09:32:27.614Z,6.35
2023-03-25T09:34:54.217Z,4.80
2023-03-25T09:37:21.090Z,4.15
2023-03-25T09:39:47.904Z,5.70
2023-03-25T09:42:30.946Z,5.47
2023-03-25T09:45:15.388Z,5.72
2023-03-25T09:47:44.161Z,5.15
2023-03-25T09:50:12.655Z,4.13
2023-03-25T09:52:55.724Z,6.60
2023-03-25T09:55:25.589Z,5.45
2023-03-25T09:57:57.521Z,6.45
2023-03-25T10:00:25.187Z,4.40
2023-03-25T10:03:11.736Z,3.95
2023-03-25T10:05:44.499Z,6.68
2023-03-25T10:08:28.943Z,7.72
2023-03-25T10:11:18.346Z,5.82
2023-03-25T10:13:54.044Z,7.03
2023-03-25T10:16:45.494Z,5.60
2023-03-25T10:19:21.136Z,6.13
2023-03-25T10:22:07.254Z,5.55
2023-03-25T10:24:51.596Z,4.43
2023-03-25T10:27:43.044Z,4.68
2023-03-25T10:30:09.492Z,6.25
2023-03-25T10:33:04.062Z,4.38
2023-03-25T10:35:32.290Z,6.03
2023-03-25T10:38:02.058Z,4.30
2023-03-25T10:40:36.149Z,3.90
2023-03-25T10:43:23.526Z,6.00
2023-03-25T10:45:52.112Z,2.70
2023-03-25T10:48:28.114Z,4.10
2023-03-25T10:51:08.494Z,3.83
2023-03-25T10:53:35.549Z,2.95
2023-03-25T10:56:07.545Z,4.57
2023-03-25T10:58:34.306Z,3.60
2023-03-25T11:01:01.681Z,5.03
2023-03-25T11:03:32.300Z,4.40
2023-03-25T11:05:58.900Z,3.60
2023-03-25T11:08:28.305Z,4.10
2023-03-25T11:10:58.502Z,3.30
2023-03-25T11:13:29.328Z,4.63
2023-03-25T11:15:58.285Z,5.03
2023-03-25T11:18:27.411Z,5.45
2023-03-25T11:21:01.400Z,4.80
2023-03-25T11:23:34.234Z,3.38
2023-03-25T11:26:11.390Z,4.07
2023-03-25T11:28:42.413Z,4.28
2023-03-25T11:31:30.891Z,3.58
2023-03-25T11:34:17.579Z,2.85
2023-03-25T11:37:01.863Z,3.72
2023-03-25T11:39:39.653Z,5.53
2023-03-25T11:42:22.430Z,6.55
2023-03-25T11:44:53.442Z,3.55
2023-03-25T11:47:23.022Z,4.97
2023-03-25T11:49:49.650Z,4.90
2023-03-25T11:52:26.414Z,3.75
2023-03-25T11:54:53.898Z,2.92
2023-03-25T11:57:24.004Z,4.03
2023-03-25T11:59:50.822Z,4.25
2023-03-25T12:02:29.453Z,3.58
2023-03-25T12:04:59.222Z,4.28
2023-03-25T12:07:26.329Z,3.67
2023-03-25T12:09:57.580Z,6.60
2023-03-25T12:12:32.509Z,3.90
2023-03-25T12:15:05.503Z,3.95
2023-03-25T12:18:06.542Z,2.45
2023-03-25T12:20:52.048Z,4.00
2023-03-25T12:23:26.947Z,333.60
2023-03-25T12:26:16.405Z,347.85
2023-03-25T12:29:01.127Z,58.83
2023-03-25T12:31:52.640Z,192.40
2023-03-25T12:34:32.690Z,113.13
2023-03-25T12:37:08.225Z,60.45
2023-03-25T12:39:43.103Z,58.42
2023-03-25T12:42:44.202Z,56.58
2023-03-25T12:45:29.667Z,56.58
2023-03-25T12:47:57.103Z,50.03
2023-03-25T12:54:31.038Z,51.03
2023-03-25T13:01:17.433Z,51.63
2023-03-25T13:04:00.461Z,42.90
2023-03-25T13:06:53.256Z,44.53
2023-03-25T13:09:24.493Z,103.53
2023-03-25T13:11:53.493Z,59.13
2023-03-25T13:15:01.374Z,51.83
2023-03-25T13:17:44.536Z,48.28
2023-03-25T13:20:12.129Z,43.22
2023-03-25T13:22:49.993Z,43.95
2023-03-25T13:25:21.722Z,43.80
2023-03-25T13:27:48.370Z,43.95
2023-03-25T13:30:23.972Z,42.88
2023-03-25T13:32:52.226Z,44.05
2023-03-25T13:35:41.920Z,42.53
2023-03-25T13:38:15.223Z,42.95
2023-03-25T13:40:49.412Z,43.10
2023-03-25T13:43:29.226Z,41.13
2023-03-25T13:46:14.340Z,41.88
2023-03-25T13:49:18.880Z,42.88
2023-03-25T13:51:45.575Z,39.33
2023-03-25T13:54:24.421Z,40.00
2023-03-25T13:57:12.849Z,36.85
2023-03-25T13:59:56.009Z,40.58
2023-03-25T14:02:50.101Z,34.67
2023-03-25T14:05:28.703Z,37.88
2023-03-25T14:08:33.816Z,37.97
2023-03-25T14:11:25.833Z,35.05
2023-03-25T14:14:10.456Z,35.15
2023-03-25T14:16:51.608Z,35.95
2023-03-25T14:19:29.168Z,31.25
2023-03-25T14:21:55.952Z,43.03
2023-03-25T14:24:27.441Z,32.88
2023-03-25T14:27:04.803Z,33.38
2023-03-25T14:30:03.263Z,33.67
2023-03-25T14:32:33.987Z,33.50
2023-03-25T14:35:31.947Z,31.75
2023-03-25T14:38:07.579Z,29.90
2023-03-25T14:40:54.694Z,26.10
2023-03-25T14:43:37.658Z,29.33
2023-03-25T14:46:10.482Z,27.25
2023-03-25T14:51:22.879Z,27.13
2023-03-25T14:54:22.976Z,24.50
2023-03-25T14:57:14.015Z,25.23
2023-03-25T14:59:58.814Z,29.42
2023-03-25T15:02:30.536Z,27.88
2023-03-25T15:05:02.187Z,25.42
2023-03-25T15:07:50.475Z,27.77
2023-03-25T15:10:48.927Z,25.88
2023-03-25T15:13:21.610Z,24.98
2023-03-25T15:15:50.694Z,24.73
2023-03-25T15:18:35.436Z,25.52
2023-03-25T15:21:07.939Z,25.00
2023-03-25T15:23:47.604Z,22.58
2023-03-25T15:26:20.990Z,24.05
2023-03-25T15:29:01.742Z,25.50
2023-03-25T15:31:50.637Z,23.35
2023-03-25T15:34:29.470Z,27.73
2023-03-25T15:37:35.907Z,25.00
2023-03-25T15:40:34.443Z,21.55
2023-03-25T15:43:07.333Z,22.17
2023-03-25T15:48:22.978Z,21.38
2023-03-25T15:51:08.088Z,23.95
2023-03-25T15:53:42.968Z,23.17
2023-03-25T15:56:14.792Z,25.48
2023-03-25T15:58:50.993Z,23.88
2023-03-25T16:01:21.491Z,20.15
2023-03-25T16:03:53.533Z,20.25
2023-03-25T16:06:21.079Z,19.55
2023-03-25T16:08:47.693Z,19.23
2023-03-25T16:11:20.582Z,18.75
2023-03-25T16:14:11.549Z,21.33
2023-03-25T16:16:40.595Z,18.73
2023-03-25T16:19:10.011Z,18.50
2023-03-25T16:21:36.748Z,19.35
2023-03-25T16:24:05.024Z,19.27
2023-03-25T16:26:36.622Z,17.98
2023-03-25T16:29:17.747Z,14.05
2023-03-25T16:31:57.874Z,10.73
2023-03-25T16:34:25.742Z,7.38
2023-03-25T16:36:55.332Z,6.05
2023-03-25T16:39:22.718Z,5.55
2023-03-25T16:41:50.092Z,5.38
2023-03-25T16:44:21.933Z,6.63
2023-03-25T16:46:48.567Z,16.25
2023-03-25T16:49:22.067Z,11.80
2023-03-25T16:51:48.995Z,11.20
2023-03-25T16:54:27.175Z,11.13
2023-03-25T16:56:54.196Z,16.20
2023-03-25T16:59:30.752Z,10.70
2023-03-25T17:01:58.315Z,11.50
2023-03-25T17:04:44.608Z,10.70
2023-03-25T17:07:20.673Z,10.85
2023-03-25T17:09:55.732Z,9.00
2023-03-25T17:15:06.963Z,9.45
2023-03-25T17:17:51.362Z,6.97
2023-03-25T17:20:26.264Z,11.40
2023-03-25T17:23:27.321Z,11.15
2023-03-25T17:25:58.534Z,9.20
2023-03-25T17:28:31.117Z,8.13
2023-03-25T17:30:57.939Z,11.13
2023-03-25T17:33:35.231Z,10.07
2023-03-25T17:36:02.999Z,10.48
2023-03-25T17:38:47.318Z,7.05
2023-03-25T17:41:17.696Z,7.07
2023-03-25T17:43:48.443Z,8.93
2023-03-25T17:46:19.883Z,7.30
2023-03-25T17:48:46.988Z,9.07
2023-03-25T17:51:18.754Z,9.23
2023-03-25T17:53:45.476Z,6.90
2023-03-25T17:56:12.023Z,7.07
2023-03-25T17:58:38.641Z,8.15
2023-03-25T18:01:05.541Z,6.43
2023-03-25T18:03:32.387Z,8.20
2023-03-25T18:06:00.807Z,7.07
2023-03-25T18:08:27.654Z,8.27
2023-03-25T18:10:55.024Z,5.95
2023-03-25T18:13:24.008Z,8.25
2023-03-25T18:15:51.804Z,5.72
2023-03-25T18:18:20.417Z,6.57
2023-03-25T18:20:48.469Z,6.13
2023-03-25T18:23:15.456Z,6.32
2023-03-25T18:25:42.176Z,5.30
2023-03-25T18:28:09.848Z,6.18
2023-03-25T18:30:43.675Z,6.63
2023-03-25T18:33:10.330Z,7.20
2023-03-25T18:35:36.987Z,7.55
2023-03-25T18:38:04.289Z,7.63
2023-03-25T18:40:33.640Z,6.30
2023-03-25T18:43:00.610Z,8.35
2023-03-25T18:45:27.471Z,7.07
2023-03-25T18:47:54.315Z,5.63
2023-03-25T18:50:25.962Z,4.93
2023-03-25T18:52:55.212Z,6.22
2023-03-25T18:55:22.213Z,4.97
2023-03-25T18:57:48.841Z,7.10
2023-03-25T19:00:31.009Z,6.32
2023-03-25T19:05:25.415Z,6.65
2023-03-25T19:07:52.306Z,4.53
2023-03-25T19:10:21.282Z,6.00
2023-03-25T19:12:47.990Z,5.00
2023-03-25T19:15:16.370Z,5.82
2023-03-25T19:17:43.778Z,5.43
2023-03-25T19:20:14.848Z,5.78
2023-03-25T19:22:41.780Z,5.38
2023-03-25T19:25:09.408Z,5.53
2023-03-25T19:27:36.019Z,6.05
2023-03-25T19:30:02.869Z,4.40
2023-03-25T19:32:29.648Z,5.00
2023-03-25T19:34:56.587Z,6.22
2023-03-25T19:37:23.528Z,4.63
2023-03-25T19:39:50.189Z,4.90
2023-03-25T19:42:16.815Z,5.07
2023-03-25T19:44:44.037Z,5.55
2023-03-25T19:47:11.484Z,4.15
2023-03-25T19:49:40.038Z,4.78
2023-03-25T19:52:07.701Z,5.15
2023-03-25T19:54:34.428Z,3.25
2023-03-25T19:57:01.487Z,6.05
2023-03-25T19:59:28.311Z,4.97
2023-03-25T20:01:54.898Z,4.75
2023-03-25T20:04:21.546Z,5.72
2023-03-25T20:06:49.814Z,5.43
2023-03-25T20:09:16.436Z,4.93
2023-03-25T20:11:43.172Z,4.53
2023-03-25T20:14:09.876Z,4.45
2023-03-25T20:16:36.706Z,4.13
2023-03-25T20:19:04.121Z,4.93
2023-03-25T20:21:31.088Z,4.93
2023-03-25T20:23:57.894Z,2.85
2023-03-25T20:26:24.616Z,3.78
2023-03-25T20:28:51.477Z,5.03
2023-03-25T20:31:20.205Z,4.32
2023-03-25T20:33:47.002Z,6.00
2023-03-25T20:36:13.685Z,4.47
2023-03-25T20:38:50.503Z,4.20
2023-03-25T20:41:24.060Z,4.10
2023-03-25T20:43:50.825Z,5.18
2023-03-25T20:46:17.646Z,4.90
2023-03-25T20:48:44.598Z,4.68
2023-03-25T20:51:11.763Z,4.38
2023-03-25T20:53:40.335Z,5.07
2023-03-25T20:56:07.000Z,4.78
2023-03-25T20:58:33.733Z,6.25
2023-03-25T21:01:00.508Z,3.70
2023-03-25T21:03:27.229Z,4.38
2023-03-25T21:05:58.409Z,4.60
2023-03-25T21:08:31.754Z,3.97
2023-03-25T21:10:58.897Z,4.53
2023-03-25T21:13:26.588Z,3.83
2023-03-25T21:15:54.719Z,2.88
2023-03-25T21:18:23.124Z,3.20
2023-03-25T21:20:53.016Z,3.47
2023-03-25T21:23:19.845Z,5.15
2023-03-25T21:25:49.444Z,3.53
2023-03-25T21:28:18.108Z,3.13
2023-03-25T21:30:45.622Z,4.47
2023-03-25T21:33:15.555Z,3.17
2023-03-25T21:35:53.669Z,3.35
2023-03-25T21:38:29.569Z,5.07
2023-03-25T21:40:59.366Z,3.08
2023-03-25T21:43:26.331Z,3.08
2023-03-25T21:45:54.644Z,3.80
2023-03-25T21:48:21.915Z,2.95
2023-03-25T21:50:51.816Z,4.75
2023-03-25T21:53:19.214Z,3.10
2023-03-25T21:55:49.920Z,3.38
2023-03-25T21:58:16.577Z,3.28
2023-03-25T22:00:43.223Z,3.63
2023-03-25T22:03:12.066Z,2.72
2023-03-25T22:05:39.458Z,3.28
2023-03-25T22:08:06.793Z,4.45
2023-03-25T22:10:33.712Z,4.75
2023-03-25T22:13:00.602Z,3.55
2023-03-25T22:15:27.289Z,3.10
2023-03-25T22:17:54.007Z,2.70
2023-03-25T22:20:20.680Z,4.70
2023-03-25T22:22:47.451Z,3.03
2023-03-25T22:25:14.081Z,6.18
2023-03-25T22:27:40.653Z,4.00
2023-03-25T22:30:08.214Z,6.18
2023-03-25T22:32:35.486Z,5.20
2023-03-25T22:35:02.526Z,4.13
2023-03-25T22:37:29.178Z,3.25
2023-03-25T22:39:55.957Z,6.07
2023-03-25T22:42:22.622Z,3.55
2023-03-25T22:44:49.359Z,5.97
2023-03-25T22:47:16.193Z,5.25
2023-03-25T22:49:43.023Z,5.22
2023-03-25T22:52:09.706Z,4.70
2023-03-25T22:54:36.566Z,3.92
2023-03-25T22:57:03.308Z,3.88
2023-03-25T22:59:30.399Z,4.50
2023-03-25T23:01:57.061Z,3.38
2023-03-25T23:04:23.751Z,5.07
2023-03-25T23:07:04.625Z,3.33
2023-03-25T23:09:42.811Z,2.38
2023-03-25T23:12:10.802Z,4.97
2023-03-25T23:14:38.919Z,2.92
2023-03-25T23:17:06.665Z,4.60
2023-03-25T23:19:33.499Z,4.22
2023-03-25T23:22:00.777Z,3.78
2023-03-25T23:24:27.750Z,3.22
2023-03-25T23:26:54.565Z,3.38
2023-03-25T23:29:22.501Z,3.92
2023-03-25T23:31:49.321Z,4.22
2023-03-25T23:34:16.623Z,3.17
2023-03-25T23:36:43.296Z,2.47
2023-03-25T23:39:12.291Z,5.00
2023-03-25T23:41:38.900Z,2.22
2023-03-25T23:44:05.756Z,4.43
2023-03-25T23:46:32.408Z,3.47
2023-03-25T23:49:02.621Z,3.35
2023-03-25T23:51:32.863Z,2.63
2023-03-25T23:53:59.416Z,3.67
2023-03-25T23:56:26.030Z,3.85
2023-03-25T23:58:52.800Z,3.67
